Meteo Giornale » Osservazioni meteo Stati Uniti (USA) » Needles
ore: 01:56 - Osservazioni Meteo Needles
Lat. 34° 45' N Lon. 114° 37' W Alt. 300 metri s.l.m.
29 °C
Sereno
Temp. 24 Ore
29 °C
39 °C
Nord
5.5 Km/h
Dew point 17 °C
Umidità 48 %
Visibilità 10 Km
Il sole sorge alle ore 06:11
Il sole tramonta alle ore 19:05
| Data e Ora | Cielo e Fenomeni | T °C | DP °C | Um. % | Pres. hPa | Vis. km | Vento km/h | |
|---|---|---|---|---|---|---|---|---|
| Oggi h: 01:56 | Sereno | 29 | 17 | 48 | 1011 | 10 | N 5.5 | |
| Oggi h: 00:56 | Sereno | 30 | 17 | 45 | 1011 | 10 | S 9.3 | |
| Ieri h: 23:56 | Molto Nuvoloso | 31 | 16 | 40 | 1010 | 10 | S 9.3 | |
| Ieri h: 22:56 | Sereno | 31 | 16 | 40 | 1010 | 10 | N 5.5 | |
| Ieri h: 21:56 | Sereno | 32 | 15 | 35 | 1010 | 10 | N 5.5 | |
| Ieri h: 20:56 | Sereno | 33 | 14 | 31 | 1009 | 10 | S 25.9 | |
| Ieri h: 18:56 | Sereno | 34 | 14 | 30 | 1008 | 10 | S/SE 37 | |
| Ieri h: 17:56 | Sereno | 36 | 17 | 32 | 1008 | 10 | S/SE 33.3 | |
| Ieri h: 16:56 | Sereno | 38 | 17 | 29 | 1007 | 10 | S/SE 35.2 | |
| Ieri h: 15:56 | Molto Nuvoloso | 38 | 18 | 31 | 1008 | 10 | SE 40.7 | |
| Ieri h: 13:56 | Nuvoloso | 39 | 14 | 22 | 1009 | 10 | S/SE 25.9 | |
| Ieri h: 12:56 | Sereno | 38 | 12 | 21 | 1010 | 10 | S 33.3 | |
| Ieri h: 11:56 | Nuvoloso | 39 | 12 | 20 | 1011 | 10 | S/SE 37 | |
| Ieri h: 10:56 | Poco Nuvoloso | 37 | 12 | 22 | 1011 | 10 | S/SE 31.5 | |
| Ieri h: 09:56 | Sereno | 36 | 14 | 26 | 1011 | 10 | S/SE 20.3 | |
| Ieri h: 08:56 | Sereno | 34 | 14 | 30 | 1011 | 10 | SE 18.5 | |
| Ieri h: 07:56 | Molto Nuvoloso | 32 | 14 | 33 | 1011 | 10 | N 0 | |
| Ieri h: 06:56 | Coperto | 31 | 17 | 43 | 1010 | 10 | N 0 | |
| Ieri h: 05:56 | Coperto | 31 | 17 | 43 | 1009 | 10 | N 5.5 | |
| Ieri h: 04:56 | Sereno | 31 | 17 | 43 | 1008 | 10 | SE 9.3 | |
| Ieri h: 03:56 | Sereno | 32 | 17 | 40 | 1009 | 10 | E/SE 18.5 | |
| Ieri h: 02:56 | Sereno | 32 | 17 | 40 | 1008 | 10 | E/SE 7.4 | |



